sensor_id;sensor_type;location;lat;lon;timestamp;P1;durP1;ratioP1;P2;durP2;ratioP2
61373;SDS011;47242;48.158;-1.586;2022-10-04T00:00:09;2.92;;;2.17;;
61373;SDS011;47242;48.158;-1.586;2022-10-04T00:02:49;4.00;;;2.92;;
61373;SDS011;47242;48.158;-1.586;2022-10-04T00:05:27;5.03;;;2.55;;
61373;SDS011;47242;48.158;-1.586;2022-10-04T00:08:12;5.60;;;2.67;;
61373;SDS011;47242;48.158;-1.586;2022-10-04T00:13:55;4.40;;;2.85;;
61373;SDS011;47242;48.158;-1.586;2022-10-04T00:16:25;4.82;;;2.78;;
61373;SDS011;47242;48.158;-1.586;2022-10-04T00:24:27;5.55;;;2.65;;
61373;SDS011;47242;48.158;-1.586;2022-10-04T00:29:49;4.10;;;2.72;;
61373;SDS011;47242;48.158;-1.586;2022-10-04T00:32:30;5.88;;;2.67;;
61373;SDS011;47242;48.158;-1.586;2022-10-04T00:35:03;4.53;;;3.13;;
61373;SDS011;47242;48.158;-1.586;2022-10-04T00:38:07;4.45;;;3.03;;
61373;SDS011;47242;48.158;-1.586;2022-10-04T00:43:15;4.80;;;3.22;;
61373;SDS011;47242;48.158;-1.586;2022-10-04T00:45:47;5.55;;;2.90;;
61373;SDS011;47242;48.158;-1.586;2022-10-04T00:50:56;6.82;;;3.15;;
61373;SDS011;47242;48.158;-1.586;2022-10-04T00:59:48;5.75;;;3.08;;
61373;SDS011;47242;48.158;-1.586;2022-10-04T01:02:22;4.32;;;3.22;;
61373;SDS011;47242;48.158;-1.586;2022-10-04T01:05:19;5.20;;;3.22;;
61373;SDS011;47242;48.158;-1.586;2022-10-04T01:07:56;6.32;;;2.97;;
61373;SDS011;47242;48.158;-1.586;2022-10-04T01:10:43;4.50;;;2.95;;
61373;SDS011;47242;48.158;-1.586;2022-10-04T01:13:18;5.60;;;3.08;;
61373;SDS011;47242;48.158;-1.586;2022-10-04T01:15:59;4.55;;;3.08;;
61373;SDS011;47242;48.158;-1.586;2022-10-04T01:18:43;5.35;;;3.60;;
61373;SDS011;47242;48.158;-1.586;2022-10-04T01:31:39;6.35;;;3.83;;
61373;SDS011;47242;48.158;-1.586;2022-10-04T01:34:20;5.85;;;3.53;;
61373;SDS011;47242;48.158;-1.586;2022-10-04T01:36:47;6.45;;;3.42;;
61373;SDS011;47242;48.158;-1.586;2022-10-04T01:39:16;7.05;;;4.05;;
61373;SDS011;47242;48.158;-1.586;2022-10-04T01:44:30;5.75;;;3.17;;
61373;SDS011;47242;48.158;-1.586;2022-10-04T01:46:58;5.20;;;3.42;;
61373;SDS011;47242;48.158;-1.586;2022-10-04T01:49:28;7.78;;;3.83;;
61373;SDS011;47242;48.158;-1.586;2022-10-04T01:51:59;5.38;;;2.95;;
61373;SDS011;47242;48.158;-1.586;2022-10-04T01:54:40;5.63;;;3.10;;
61373;SDS011;47242;48.158;-1.586;2022-10-04T01:57:14;6.93;;;3.63;;
61373;SDS011;47242;48.158;-1.586;2022-10-04T02:02:20;5.85;;;3.42;;
61373;SDS011;47242;48.158;-1.586;2022-10-04T02:05:12;5.95;;;3.53;;
61373;SDS011;47242;48.158;-1.586;2022-10-04T02:07:42;7.97;;;4.03;;
61373;SDS011;47242;48.158;-1.586;2022-10-04T02:10:09;8.23;;;3.55;;
61373;SDS011;47242;48.158;-1.586;2022-10-04T02:12:43;4.63;;;3.38;;
61373;SDS011;47242;48.158;-1.586;2022-10-04T02:15:11;8.07;;;3.90;;
61373;SDS011;47242;48.158;-1.586;2022-10-04T02:17:39;8.95;;;3.97;;
61373;SDS011;47242;48.158;-1.586;2022-10-04T02:20:09;6.27;;;3.77;;
61373;SDS011;47242;48.158;-1.586;2022-10-04T02:22:39;5.78;;;3.65;;
61373;SDS011;47242;48.158;-1.586;2022-10-04T02:25:07;5.65;;;3.35;;
61373;SDS011;47242;48.158;-1.586;2022-10-04T02:27:51;8.50;;;3.95;;
61373;SDS011;47242;48.158;-1.586;2022-10-04T02:30:17;4.88;;;3.45;;
61373;SDS011;47242;48.158;-1.586;2022-10-04T02:32:43;7.03;;;4.07;;
61373;SDS011;47242;48.158;-1.586;2022-10-04T02:35:23;5.68;;;3.60;;
61373;SDS011;47242;48.158;-1.586;2022-10-04T02:38:26;6.47;;;3.95;;
61373;SDS011;47242;48.158;-1.586;2022-10-04T02:40:48;7.70;;;4.28;;
61373;SDS011;47242;48.158;-1.586;2022-10-04T02:44:07;5.53;;;3.55;;
61373;SDS011;47242;48.158;-1.586;2022-10-04T02:46:32;7.05;;;4.10;;
61373;SDS011;47242;48.158;-1.586;2022-10-04T02:49:32;7.20;;;4.15;;
61373;SDS011;47242;48.158;-1.586;2022-10-04T02:52:06;6.63;;;4.07;;
61373;SDS011;47242;48.158;-1.586;2022-10-04T02:54:44;7.50;;;4.38;;
61373;SDS011;47242;48.158;-1.586;2022-10-04T02:57:32;7.30;;;4.05;;
61373;SDS011;47242;48.158;-1.586;2022-10-04T03:00:18;6.28;;;3.83;;
61373;SDS011;47242;48.158;-1.586;2022-10-04T03:05:33;8.52;;;4.75;;
61373;SDS011;47242;48.158;-1.586;2022-10-04T03:07:59;9.90;;;4.32;;
61373;SDS011;47242;48.158;-1.586;2022-10-04T03:10:25;7.30;;;4.50;;
61373;SDS011;47242;48.158;-1.586;2022-10-04T03:12:51;8.27;;;4.38;;
61373;SDS011;47242;48.158;-1.586;2022-10-04T03:15:17;8.77;;;4.18;;
61373;SDS011;47242;48.158;-1.586;2022-10-04T03:17:44;8.25;;;4.78;;
61373;SDS011;47242;48.158;-1.586;2022-10-04T03:20:11;7.38;;;4.03;;
61373;SDS011;47242;48.158;-1.586;2022-10-04T03:22:40;8.38;;;4.95;;
61373;SDS011;47242;48.158;-1.586;2022-10-04T03:25:11;7.10;;;4.45;;
61373;SDS011;47242;48.158;-1.586;2022-10-04T03:27:42;6.93;;;4.18;;
61373;SDS011;47242;48.158;-1.586;2022-10-04T03:30:14;7.93;;;4.75;;
61373;SDS011;47242;48.158;-1.586;2022-10-04T03:33:01;7.60;;;4.50;;
61373;SDS011;47242;48.158;-1.586;2022-10-04T03:35:28;7.30;;;4.32;;
61373;SDS011;47242;48.158;-1.586;2022-10-04T03:37:58;6.53;;;3.88;;
61373;SDS011;47242;48.158;-1.586;2022-10-04T03:40:28;7.60;;;5.22;;
61373;SDS011;47242;48.158;-1.586;2022-10-04T03:42:56;10.65;;;4.65;;
61373;SDS011;47242;48.158;-1.586;2022-10-04T03:45:25;8.53;;;4.30;;
61373;SDS011;47242;48.158;-1.586;2022-10-04T03:47:52;7.93;;;4.57;;
61373;SDS011;47242;48.158;-1.586;2022-10-04T03:50:25;8.25;;;4.65;;
61373;SDS011;47242;48.158;-1.586;2022-10-04T03:52:55;9.85;;;5.38;;
61373;SDS011;47242;48.158;-1.586;2022-10-04T03:55:42;8.05;;;5.30;;
61373;SDS011;47242;48.158;-1.586;2022-10-04T03:58:10;8.57;;;4.38;;
61373;SDS011;47242;48.158;-1.586;2022-10-04T04:00:39;7.80;;;4.40;;
61373;SDS011;47242;48.158;-1.586;2022-10-04T04:03:22;8.07;;;4.53;;
61373;SDS011;47242;48.158;-1.586;2022-10-04T04:05:53;8.52;;;4.78;;
61373;SDS011;47242;48.158;-1.586;2022-10-04T04:08:28;9.65;;;4.43;;
61373;SDS011;47242;48.158;-1.586;2022-10-04T04:10:58;9.73;;;4.53;;
61373;SDS011;47242;48.158;-1.586;2022-10-04T04:13:34;6.28;;;3.97;;
61373;SDS011;47242;48.158;-1.586;2022-10-04T04:16:11;7.10;;;4.53;;
61373;SDS011;47242;48.158;-1.586;2022-10-04T04:18:37;12.32;;;5.78;;
61373;SDS011;47242;48.158;-1.586;2022-10-04T04:21:07;8.70;;;4.70;;
61373;SDS011;47242;48.158;-1.586;2022-10-04T04:28:48;10.13;;;5.45;;
61373;SDS011;47242;48.158;-1.586;2022-10-04T04:31:29;7.90;;;4.55;;
61373;SDS011;47242;48.158;-1.586;2022-10-04T04:34:03;9.20;;;4.97;;
61373;SDS011;47242;48.158;-1.586;2022-10-04T04:36:38;11.80;;;5.53;;
61373;SDS011;47242;48.158;-1.586;2022-10-04T04:44:54;9.57;;;5.15;;
61373;SDS011;47242;48.158;-1.586;2022-10-04T04:47:37;8.32;;;4.45;;
61373;SDS011;47242;48.158;-1.586;2022-10-04T04:50:25;11.45;;;4.88;;
61373;SDS011;47242;48.158;-1.586;2022-10-04T04:52:57;10.55;;;4.57;;
61373;SDS011;47242;48.158;-1.586;2022-10-04T04:55:29;12.60;;;5.07;;
61373;SDS011;47242;48.158;-1.586;2022-10-04T04:58:22;10.15;;;5.65;;
61373;SDS011;47242;48.158;-1.586;2022-10-04T05:00:55;8.75;;;4.75;;
61373;SDS011;47242;48.158;-1.586;2022-10-04T05:03:24;12.85;;;6.00;;
61373;SDS011;47242;48.158;-1.586;2022-10-04T05:05:50;9.65;;;5.53;;
61373;SDS011;47242;48.158;-1.586;2022-10-04T05:08:20;11.02;;;5.85;;
61373;SDS011;47242;48.158;-1.586;2022-10-04T05:13:39;13.10;;;6.30;;
61373;SDS011;47242;48.158;-1.586;2022-10-04T05:16:15;11.98;;;6.68;;
61373;SDS011;47242;48.158;-1.586;2022-10-04T05:18:45;15.70;;;7.10;;
61373;SDS011;47242;48.158;-1.586;2022-10-04T05:21:25;13.55;;;7.10;;
61373;SDS011;47242;48.158;-1.586;2022-10-04T05:23:52;12.13;;;7.00;;
61373;SDS011;47242;48.158;-1.586;2022-10-04T05:26:25;13.80;;;8.25;;
61373;SDS011;47242;48.158;-1.586;2022-10-04T05:28:55;13.93;;;8.20;;
61373;SDS011;47242;48.158;-1.586;2022-10-04T05:33:58;15.82;;;7.43;;
61373;SDS011;47242;48.158;-1.586;2022-10-04T05:39:25;14.23;;;7.65;;
61373;SDS011;47242;48.158;-1.586;2022-10-04T05:42:15;11.32;;;6.57;;
61373;SDS011;47242;48.158;-1.586;2022-10-04T05:44:48;13.60;;;7.15;;
61373;SDS011;47242;48.158;-1.586;2022-10-04T05:47:29;13.55;;;6.97;;
61373;SDS011;47242;48.158;-1.586;2022-10-04T05:49:55;12.02;;;6.25;;
61373;SDS011;47242;48.158;-1.586;2022-10-04T06:01:22;12.05;;;6.03;;
61373;SDS011;47242;48.158;-1.586;2022-10-04T06:04:21;13.13;;;5.82;;
61373;SDS011;47242;48.158;-1.586;2022-10-04T06:07:03;7.73;;;4.07;;
61373;SDS011;47242;48.158;-1.586;2022-10-04T06:10:02;7.75;;;4.90;;
61373;SDS011;47242;48.158;-1.586;2022-10-04T06:24:04;12.27;;;5.43;;
61373;SDS011;47242;48.158;-1.586;2022-10-04T06:27:03;9.27;;;4.82;;
61373;SDS011;47242;48.158;-1.586;2022-10-04T06:29:41;10.05;;;4.45;;
61373;SDS011;47242;48.158;-1.586;2022-10-04T06:35:22;9.52;;;5.47;;
61373;SDS011;47242;48.158;-1.586;2022-10-04T06:44:05;13.70;;;5.50;;
61373;SDS011;47242;48.158;-1.586;2022-10-04T07:00:17;9.30;;;4.40;;
61373;SDS011;47242;48.158;-1.586;2022-10-04T07:08:05;8.63;;;4.30;;
61373;SDS011;47242;48.158;-1.586;2022-10-04T07:11:05;7.45;;;3.90;;
61373;SDS011;47242;48.158;-1.586;2022-10-04T07:13:45;9.05;;;4.47;;
61373;SDS011;47242;48.158;-1.586;2022-10-04T07:24:29;7.20;;;4.45;;
61373;SDS011;47242;48.158;-1.586;2022-10-04T07:27:12;5.15;;;4.00;;
61373;SDS011;47242;48.158;-1.586;2022-10-04T07:29:42;7.63;;;4.13;;
61373;SDS011;47242;48.158;-1.586;2022-10-04T07:32:29;6.28;;;3.55;;
61373;SDS011;47242;48.158;-1.586;2022-10-04T07:37:55;7.70;;;4.63;;
61373;SDS011;47242;48.158;-1.586;2022-10-04T07:43:24;13.10;;;5.07;;
61373;SDS011;47242;48.158;-1.586;2022-10-04T07:46:00;10.88;;;4.38;;
61373;SDS011;47242;48.158;-1.586;2022-10-04T07:48:30;4.45;;;2.40;;
61373;SDS011;47242;48.158;-1.586;2022-10-04T07:56:59;3.90;;;1.90;;
61373;SDS011;47242;48.158;-1.586;2022-10-04T08:05:21;3.25;;;1.90;;
61373;SDS011;47242;48.158;-1.586;2022-10-04T08:10:38;3.65;;;1.88;;
61373;SDS011;47242;48.158;-1.586;2022-10-04T08:13:24;2.60;;;1.60;;
61373;SDS011;47242;48.158;-1.586;2022-10-04T08:26:55;2.95;;;1.05;;
61373;SDS011;47242;48.158;-1.586;2022-10-04T08:30:02;2.08;;;1.27;;
61373;SDS011;47242;48.158;-1.586;2022-10-04T08:32:37;1.95;;;0.88;;
61373;SDS011;47242;48.158;-1.586;2022-10-04T08:38:15;1.15;;;0.70;;
61373;SDS011;47242;48.158;-1.586;2022-10-04T08:49:36;2.08;;;1.23;;
61373;SDS011;47242;48.158;-1.586;2022-10-04T08:52:44;2.13;;;0.73;;
61373;SDS011;47242;48.158;-1.586;2022-10-04T09:02:21;1.50;;;0.80;;
61373;SDS011;47242;48.158;-1.586;2022-10-04T09:11:34;1.08;;;0.70;;
61373;SDS011;47242;48.158;-1.586;2022-10-04T09:14:08;1.77;;;0.50;;
61373;SDS011;47242;48.158;-1.586;2022-10-04T09:17:05;2.25;;;0.68;;
61373;SDS011;47242;48.158;-1.586;2022-10-04T09:19:48;1.27;;;0.70;;
61373;SDS011;47242;48.158;-1.586;2022-10-04T09:22:45;0.80;;;0.43;;
61373;SDS011;47242;48.158;-1.586;2022-10-04T09:25:20;2.13;;;0.77;;
61373;SDS011;47242;48.158;-1.586;2022-10-04T09:42:07;2.38;;;0.80;;
61373;SDS011;47242;48.158;-1.586;2022-10-04T09:47:24;1.30;;;0.77;;
61373;SDS011;47242;48.158;-1.586;2022-10-04T09:50:15;2.53;;;0.80;;
61373;SDS011;47242;48.158;-1.586;2022-10-04T09:55:27;2.17;;;0.98;;
61373;SDS011;47242;48.158;-1.586;2022-10-04T10:01:04;3.15;;;0.95;;
61373;SDS011;47242;48.158;-1.586;2022-10-04T10:23:40;1.30;;;0.70;;
61373;SDS011;47242;48.158;-1.586;2022-10-04T10:26:30;0.68;;;0.40;;
61373;SDS011;47242;48.158;-1.586;2022-10-04T10:49:16;1.58;;;0.55;;
61373;SDS011;47242;48.158;-1.586;2022-10-04T11:03:22;0.68;;;0.40;;
61373;SDS011;47242;48.158;-1.586;2022-10-04T11:27:08;2.03;;;0.38;;
61373;SDS011;47242;48.158;-1.586;2022-10-04T11:40:43;0.43;;;0.30;;
61373;SDS011;47242;48.158;-1.586;2022-10-04T11:43:20;0.57;;;0.30;;
61373;SDS011;47242;48.158;-1.586;2022-10-04T11:57:19;0.65;;;0.30;;
61373;SDS011;47242;48.158;-1.586;2022-10-04T12:00:10;0.30;;;0.30;;
61373;SDS011;47242;48.158;-1.586;2022-10-04T12:05:57;1.45;;;0.75;;
61373;SDS011;47242;48.158;-1.586;2022-10-04T12:08:52;2.00;;;1.13;;
61373;SDS011;47242;48.158;-1.586;2022-10-04T12:17:12;3.22;;;0.60;;
61373;SDS011;47242;48.158;-1.586;2022-10-04T12:34:28;0.52;;;0.30;;
61373;SDS011;47242;48.158;-1.586;2022-10-04T12:37:15;1.73;;;0.60;;
61373;SDS011;47242;48.158;-1.586;2022-10-04T12:39:49;1.38;;;0.80;;
61373;SDS011;47242;48.158;-1.586;2022-10-04T12:42:26;2.05;;;0.88;;
61373;SDS011;47242;48.158;-1.586;2022-10-04T13:01:18;1.25;;;0.70;;
61373;SDS011;47242;48.158;-1.586;2022-10-04T13:10:09;1.50;;;0.80;;
61373;SDS011;47242;48.158;-1.586;2022-10-04T13:19:20;0.77;;;0.60;;
61373;SDS011;47242;48.158;-1.586;2022-10-04T13:30:06;1.00;;;0.52;;
61373;SDS011;47242;48.158;-1.586;2022-10-04T13:35:48;1.25;;;0.63;;
61373;SDS011;47242;48.158;-1.586;2022-10-04T13:49:10;1.50;;;0.60;;
61373;SDS011;47242;48.158;-1.586;2022-10-04T13:51:44;3.10;;;1.10;;
61373;SDS011;47242;48.158;-1.586;2022-10-04T13:54:29;1.88;;;0.75;;
61373;SDS011;47242;48.158;-1.586;2022-10-04T13:57:25;1.63;;;0.60;;
61373;SDS011;47242;48.158;-1.586;2022-10-04T14:03:37;1.23;;;0.50;;
61373;SDS011;47242;48.158;-1.586;2022-10-04T14:14:49;0.70;;;0.50;;
61373;SDS011;47242;48.158;-1.586;2022-10-04T14:17:51;2.67;;;0.60;;
61373;SDS011;47242;48.158;-1.586;2022-10-04T14:37:52;0.93;;;0.50;;
61373;SDS011;47242;48.158;-1.586;2022-10-04T14:46:22;2.75;;;0.47;;
61373;SDS011;47242;48.158;-1.586;2022-10-04T14:52:30;1.30;;;0.73;;
61373;SDS011;47242;48.158;-1.586;2022-10-04T14:58:03;1.02;;;0.68;;
61373;SDS011;47242;48.158;-1.586;2022-10-04T15:00:53;1.60;;;0.60;;
61373;SDS011;47242;48.158;-1.586;2022-10-04T15:03:45;1.02;;;0.52;;
61373;SDS011;47242;48.158;-1.586;2022-10-04T15:09:36;0.90;;;0.52;;
61373;SDS011;47242;48.158;-1.586;2022-10-04T15:20:23;0.80;;;0.50;;
61373;SDS011;47242;48.158;-1.586;2022-10-04T15:22:51;0.75;;;0.50;;
61373;SDS011;47242;48.158;-1.586;2022-10-04T15:28:14;2.75;;;0.85;;
61373;SDS011;47242;48.158;-1.586;2022-10-04T15:31:15;1.35;;;0.57;;
61373;SDS011;47242;48.158;-1.586;2022-10-04T15:33:45;1.58;;;0.80;;
61373;SDS011;47242;48.158;-1.586;2022-10-04T15:53:23;3.35;;;1.10;;
61373;SDS011;47242;48.158;-1.586;2022-10-04T15:56:00;3.17;;;1.70;;
61373;SDS011;47242;48.158;-1.586;2022-10-04T16:07:29;2.40;;;1.50;;
61373;SDS011;47242;48.158;-1.586;2022-10-04T16:15:17;3.97;;;2.13;;
61373;SDS011;47242;48.158;-1.586;2022-10-04T16:23:47;4.15;;;1.75;;
61373;SDS011;47242;48.158;-1.586;2022-10-04T16:39:49;1.98;;;0.88;;
61373;SDS011;47242;48.158;-1.586;2022-10-04T16:56:22;0.43;;;0.20;;
61373;SDS011;47242;48.158;-1.586;2022-10-04T16:59:02;0.50;;;0.30;;
61373;SDS011;47242;48.158;-1.586;2022-10-04T17:09:39;0.50;;;0.30;;
61373;SDS011;47242;48.158;-1.586;2022-10-04T17:12:26;0.52;;;0.40;;
61373;SDS011;47242;48.158;-1.586;2022-10-04T17:26:24;0.73;;;0.40;;
61373;SDS011;47242;48.158;-1.586;2022-10-04T17:42:53;0.60;;;0.45;;
61373;SDS011;47242;48.158;-1.586;2022-10-04T17:48:44;2.00;;;0.70;;
61373;SDS011;47242;48.158;-1.586;2022-10-04T17:51:38;1.75;;;0.60;;
61373;SDS011;47242;48.158;-1.586;2022-10-04T17:54:47;0.80;;;0.43;;
61373;SDS011;47242;48.158;-1.586;2022-10-04T17:57:39;0.57;;;0.30;;
61373;SDS011;47242;48.158;-1.586;2022-10-04T18:00:26;2.05;;;0.70;;
61373;SDS011;47242;48.158;-1.586;2022-10-04T18:03:19;0.70;;;0.50;;
61373;SDS011;47242;48.158;-1.586;2022-10-04T18:05:51;1.67;;;0.60;;
61373;SDS011;47242;48.158;-1.586;2022-10-04T18:17:24;1.67;;;0.50;;
61373;SDS011;47242;48.158;-1.586;2022-10-04T18:20:06;1.15;;;0.60;;
61373;SDS011;47242;48.158;-1.586;2022-10-04T18:25:47;1.05;;;0.70;;
61373;SDS011;47242;48.158;-1.586;2022-10-04T18:28:14;0.90;;;0.60;;
61373;SDS011;47242;48.158;-1.586;2022-10-04T18:33:16;0.85;;;0.45;;
61373;SDS011;47242;48.158;-1.586;2022-10-04T18:35:51;1.17;;;0.70;;
61373;SDS011;47242;48.158;-1.586;2022-10-04T18:38:26;1.50;;;0.50;;
61373;SDS011;47242;48.158;-1.586;2022-10-04T18:40:58;1.55;;;0.63;;
61373;SDS011;47242;48.158;-1.586;2022-10-04T18:43:30;1.20;;;0.73;;
61373;SDS011;47242;48.158;-1.586;2022-10-04T18:46:04;1.35;;;0.68;;
61373;SDS011;47242;48.158;-1.586;2022-10-04T18:48:49;1.20;;;0.73;;
61373;SDS011;47242;48.158;-1.586;2022-10-04T18:51:26;0.85;;;0.40;;
61373;SDS011;47242;48.158;-1.586;2022-10-04T18:56:35;2.13;;;0.55;;
61373;SDS011;47242;48.158;-1.586;2022-10-04T19:02:34;1.50;;;0.60;;
61373;SDS011;47242;48.158;-1.586;2022-10-04T19:07:57;2.88;;;0.98;;
61373;SDS011;47242;48.158;-1.586;2022-10-04T19:24:02;1.77;;;0.70;;
61373;SDS011;47242;48.158;-1.586;2022-10-04T19:30:03;2.17;;;0.63;;
61373;SDS011;47242;48.158;-1.586;2022-10-04T19:35:28;1.25;;;0.65;;
61373;SDS011;47242;48.158;-1.586;2022-10-04T19:43:57;1.10;;;0.70;;
61373;SDS011;47242;48.158;-1.586;2022-10-04T19:46:37;1.30;;;0.70;;
61373;SDS011;47242;48.158;-1.586;2022-10-04T19:52:26;2.20;;;1.02;;
61373;SDS011;47242;48.158;-1.586;2022-10-04T19:55:22;1.40;;;0.60;;
61373;SDS011;47242;48.158;-1.586;2022-10-04T19:58:24;1.48;;;0.90;;
61373;SDS011;47242;48.158;-1.586;2022-10-04T20:01:18;1.55;;;1.00;;
61373;SDS011;47242;48.158;-1.586;2022-10-04T20:03:47;1.63;;;0.80;;
61373;SDS011;47242;48.158;-1.586;2022-10-04T20:06:33;4.50;;;1.20;;
61373;SDS011;47242;48.158;-1.586;2022-10-04T20:11:49;1.00;;;0.60;;
61373;SDS011;47242;48.158;-1.586;2022-10-04T20:19:20;1.92;;;0.65;;
61373;SDS011;47242;48.158;-1.586;2022-10-04T20:27:03;1.15;;;0.70;;
61373;SDS011;47242;48.158;-1.586;2022-10-04T20:34:57;1.52;;;0.70;;
61373;SDS011;47242;48.158;-1.586;2022-10-04T20:40:07;1.65;;;0.70;;
61373;SDS011;47242;48.158;-1.586;2022-10-04T20:42:37;1.02;;;0.70;;
61373;SDS011;47242;48.158;-1.586;2022-10-04T20:50:11;1.25;;;0.82;;
61373;SDS011;47242;48.158;-1.586;2022-10-04T20:52:53;2.40;;;0.60;;
61373;SDS011;47242;48.158;-1.586;2022-10-04T20:55:30;1.48;;;0.70;;
61373;SDS011;47242;48.158;-1.586;2022-10-04T20:57:58;2.13;;;0.85;;
61373;SDS011;47242;48.158;-1.586;2022-10-04T21:00:27;1.42;;;0.60;;
61373;SDS011;47242;48.158;-1.586;2022-10-04T21:03:07;1.55;;;0.68;;
61373;SDS011;47242;48.158;-1.586;2022-10-04T21:05:37;3.70;;;1.13;;
61373;SDS011;47242;48.158;-1.586;2022-10-04T21:08:22;0.90;;;0.60;;
61373;SDS011;47242;48.158;-1.586;2022-10-04T21:21:58;1.05;;;0.60;;
61373;SDS011;47242;48.158;-1.586;2022-10-04T21:27:11;0.80;;;0.50;;
61373;SDS011;47242;48.158;-1.586;2022-10-04T21:29:49;1.40;;;0.60;;
61373;SDS011;47242;48.158;-1.586;2022-10-04T21:32:17;1.15;;;0.57;;
61373;SDS011;47242;48.158;-1.586;2022-10-04T21:34:46;2.00;;;0.70;;
61373;SDS011;47242;48.158;-1.586;2022-10-04T21:37:12;1.42;;;0.70;;
61373;SDS011;47242;48.158;-1.586;2022-10-04T21:39:38;1.25;;;0.40;;
61373;SDS011;47242;48.158;-1.586;2022-10-04T21:42:03;0.70;;;0.50;;
61373;SDS011;47242;48.158;-1.586;2022-10-04T21:44:29;1.10;;;0.68;;
61373;SDS011;47242;48.158;-1.586;2022-10-04T21:46:55;1.95;;;0.40;;
61373;SDS011;47242;48.158;-1.586;2022-10-04T21:49:20;1.33;;;0.70;;
61373;SDS011;47242;48.158;-1.586;2022-10-04T21:51:46;1.20;;;0.55;;
61373;SDS011;47242;48.158;-1.586;2022-10-04T21:54:11;1.77;;;0.60;;
61373;SDS011;47242;48.158;-1.586;2022-10-04T21:56:37;0.57;;;0.30;;
61373;SDS011;47242;48.158;-1.586;2022-10-04T21:59:03;0.93;;;0.52;;
61373;SDS011;47242;48.158;-1.586;2022-10-04T22:01:29;0.82;;;0.63;;
61373;SDS011;47242;48.158;-1.586;2022-10-04T22:03:54;1.27;;;0.57;;
61373;SDS011;47242;48.158;-1.586;2022-10-04T22:06:20;1.52;;;0.50;;
61373;SDS011;47242;48.158;-1.586;2022-10-04T22:08:46;1.90;;;0.57;;
61373;SDS011;47242;48.158;-1.586;2022-10-04T22:11:12;1.35;;;0.50;;
61373;SDS011;47242;48.158;-1.586;2022-10-04T22:13:37;2.60;;;0.55;;
61373;SDS011;47242;48.158;-1.586;2022-10-04T22:16:03;1.23;;;0.60;;
61373;SDS011;47242;48.158;-1.586;2022-10-04T22:18:30;2.65;;;0.60;;
61373;SDS011;47242;48.158;-1.586;2022-10-04T22:20:56;0.93;;;0.45;;
61373;SDS011;47242;48.158;-1.586;2022-10-04T22:23:23;2.28;;;0.50;;
61373;SDS011;47242;48.158;-1.586;2022-10-04T22:25:51;1.88;;;0.70;;
61373;SDS011;47242;48.158;-1.586;2022-10-04T22:28:22;1.30;;;0.68;;
61373;SDS011;47242;48.158;-1.586;2022-10-04T22:30:53;1.10;;;0.60;;
61373;SDS011;47242;48.158;-1.586;2022-10-04T22:33:32;1.38;;;0.65;;
61373;SDS011;47242;48.158;-1.586;2022-10-04T22:38:48;1.70;;;0.50;;
61373;SDS011;47242;48.158;-1.586;2022-10-04T22:41:37;1.13;;;0.70;;
61373;SDS011;47242;48.158;-1.586;2022-10-04T22:44:26;0.63;;;0.50;;
61373;SDS011;47242;48.158;-1.586;2022-10-04T22:46:55;2.17;;;1.33;;
61373;SDS011;47242;48.158;-1.586;2022-10-04T22:49:24;1.45;;;0.70;;
61373;SDS011;47242;48.158;-1.586;2022-10-04T22:51:52;1.80;;;0.80;;
61373;SDS011;47242;48.158;-1.586;2022-10-04T22:54:20;1.70;;;0.60;;
61373;SDS011;47242;48.158;-1.586;2022-10-04T22:56:49;3.35;;;1.02;;
61373;SDS011;47242;48.158;-1.586;2022-10-04T22:59:16;1.25;;;0.75;;
61373;SDS011;47242;48.158;-1.586;2022-10-04T23:01:44;1.92;;;0.88;;
61373;SDS011;47242;48.158;-1.586;2022-10-04T23:06:46;2.00;;;1.08;;
61373;SDS011;47242;48.158;-1.586;2022-10-04T23:09:12;2.60;;;0.70;;
61373;SDS011;47242;48.158;-1.586;2022-10-04T23:11:37;1.60;;;0.75;;
61373;SDS011;47242;48.158;-1.586;2022-10-04T23:14:03;1.40;;;0.80;;
61373;SDS011;47242;48.158;-1.586;2022-10-04T23:16:28;1.52;;;0.82;;
61373;SDS011;47242;48.158;-1.586;2022-10-04T23:19:00;1.00;;;0.65;;
61373;SDS011;47242;48.158;-1.586;2022-10-04T23:21:33;1.45;;;0.90;;
61373;SDS011;47242;48.158;-1.586;2022-10-04T23:24:09;1.55;;;0.70;;
61373;SDS011;47242;48.158;-1.586;2022-10-04T23:26:42;1.23;;;0.80;;
61373;SDS011;47242;48.158;-1.586;2022-10-04T23:29:16;1.27;;;0.70;;
61373;SDS011;47242;48.158;-1.586;2022-10-04T23:31:47;2.13;;;0.73;;
61373;SDS011;47242;48.158;-1.586;2022-10-04T23:34:33;1.92;;;0.82;;
61373;SDS011;47242;48.158;-1.586;2022-10-04T23:37:00;4.82;;;1.38;;
61373;SDS011;47242;48.158;-1.586;2022-10-04T23:39:31;2.25;;;0.70;;
61373;SDS011;47242;48.158;-1.586;2022-10-04T23:41:59;2.08;;;0.80;;
61373;SDS011;47242;48.158;-1.586;2022-10-04T23:46:58;1.40;;;0.70;;
61373;SDS011;47242;48.158;-1.586;2022-10-04T23:49:24;1.08;;;0.60;;
61373;SDS011;47242;48.158;-1.586;2022-10-04T23:51:50;3.17;;;1.00;;
61373;SDS011;47242;48.158;-1.586;2022-10-04T23:54:21;1.40;;;0.90;;
61373;SDS011;47242;48.158;-1.586;2022-10-04T23:56:47;1.15;;;0.68;;
61373;SDS011;47242;48.158;-1.586;2022-10-04T23:59:16;2.63;;;1.00;;
